Time;durP1;ratioP1;P1;durP2;ratioP2;P2;SDS_P1;SDS_P2;PMS_P1;PMS_P2;Temp;Humidity;BMP_temperature;BMP_pressure;BME280_temperature;BME280_humidity;BME280_pressure;Samples;Min_cycle;Max_cycle;Signal;HPM_P1;HPM_P2
2022/06/03 00:00:45;;;;;;;;;;;21.40;52.10;;;;;;496184;240;1160;-41
2022/06/03 00:02:46;;;;;;;;;;;21.40;52.10;;;;;;496134;240;1507;-41
2022/06/03 00:04:48;;;;;;;;;;;21.40;52.10;;;;;;496172;240;2111;-41
2022/06/03 00:06:49;;;;;;;;;;;21.50;52.00;;;;;;496364;240;1264;-41
2022/06/03 00:08:50;;;;;;;;;;;21.50;52.00;;;;;;496609;240;1117;-41
2022/06/03 00:10:52;;;;;;;;;;;21.50;52.00;;;;;;496640;240;1048;-41
2022/06/03 00:12:53;;;;;;;;;;;21.40;51.90;;;;;;496542;240;1287;-41
2022/06/03 00:14:55;;;;;;;;;;;21.40;52.00;;;;;;496145;240;1157;-41
2022/06/03 00:16:56;;;;;;;;;;;21.40;52.00;;;;;;496246;240;2387;-41
2022/06/03 00:18:57;;;;;;;;;;;21.50;52.00;;;;;;496248;240;1061;-41
2022/06/03 00:20:58;;;;;;;;;;;21.40;52.00;;;;;;496503;240;1055;-41
2022/06/03 00:23:00;;;;;;;;;;;21.50;52.00;;;;;;496237;240;1088;-41
2022/06/03 00:25:01;;;;;;;;;;;21.50;52.00;;;;;;496648;240;2189;-41
2022/06/03 00:27:02;;;;;;;;;;;21.40;52.00;;;;;;496659;240;1066;-41
2022/06/03 00:29:04;;;;;;;;;;;21.40;52.20;;;;;;496638;240;1061;-41
2022/06/03 00:31:05;;;;;;;;;;;21.40;52.20;;;;;;496569;240;1059;-41
2022/06/03 00:33:06;;;;;;;;;;;21.40;52.20;;;;;;496144;240;1290;-41
2022/06/03 00:35:08;;;;;;;;;;;21.40;52.30;;;;;;496610;240;1018;-41
2022/06/03 00:37:09;;;;;;;;;;;21.40;52.20;;;;;;496580;240;1193;-41
2022/06/03 00:39:10;;;;;;;;;;;21.40;52.10;;;;;;496123;240;1311;-41
2022/06/03 00:41:12;;;;;;;;;;;21.40;52.10;;;;;;496176;240;1104;-41
2022/06/03 00:43:13;;;;;;;;;;;21.40;52.10;;;;;;496553;240;1066;-41
2022/06/03 00:45:14;;;;;;;;;;;21.40;52.10;;;;;;496067;240;2114;-41
2022/06/03 00:47:16;;;;;;;;;;;21.40;52.20;;;;;;496257;240;1154;-41
2022/06/03 00:49:19;;;;;;;;;;;21.40;52.20;;;;;;496171;240;1710;-41
2022/06/03 00:51:20;;;;;;;;;;;21.40;52.20;;;;;;496594;240;1249;-41
2022/06/03 00:53:21;;;;;;;;;;;21.40;52.10;;;;;;496631;240;1015;-41
2022/06/03 00:55:23;;;;;;;;;;;21.40;52.20;;;;;;496203;240;1085;-41
2022/06/03 00:57:25;;;;;;;;;;;21.40;52.20;;;;;;496457;240;1034;-41
2022/06/03 00:59:26;;;;;;;;;;;21.40;52.30;;;;;;496085;240;1230;-41
2022/06/03 01:01:27;;;;;;;;;;;21.40;52.20;;;;;;496283;240;1276;-41
2022/06/03 01:03:29;;;;;;;;;;;21.40;52.10;;;;;;496307;240;1152;-41
2022/06/03 01:05:30;;;;;;;;;;;21.40;52.20;;;;;;496561;240;2202;-41
2022/06/03 01:07:31;;;;;;;;;;;21.40;52.30;;;;;;496593;240;1194;-41
2022/06/03 01:09:32;;;;;;;;;;;21.40;52.20;;;;;;496561;240;1223;-41
2022/06/03 01:11:34;;;;;;;;;;;21.40;52.30;;;;;;496556;240;1338;-41
2022/06/03 01:13:35;;;;;;;;;;;21.40;52.10;;;;;;496046;240;1136;-41
2022/06/03 01:15:36;;;;;;;;;;;21.40;52.10;;;;;;496097;240;1278;-41
2022/06/03 01:17:38;;;;;;;;;;;21.40;52.20;;;;;;496475;240;1318;-41
2022/06/03 01:19:39;;;;;;;;;;;21.40;52.20;;;;;;496258;240;1073;-41
2022/06/03 01:21:40;;;;;;;;;;;21.40;52.20;;;;;;495977;240;1112;-41
2022/06/03 01:23:42;;;;;;;;;;;21.40;52.20;;;;;;496562;240;2413;-41
2022/06/03 01:25:43;;;;;;;;;;;21.40;52.20;;;;;;496612;240;1237;-41
2022/06/03 01:27:44;;;;;;;;;;;21.40;52.10;;;;;;496112;240;1241;-41
2022/06/03 01:29:46;;;;;;;;;;;21.40;52.20;;;;;;496594;240;1233;-41
2022/06/03 01:31:48;;;;;;;;;;;21.40;52.20;;;;;;496528;240;1307;-41
2022/06/03 01:33:48;;;;;;;;;;;21.40;52.20;;;;;;496017;240;1515;-41
2022/06/03 01:35:50;;;;;;;;;;;21.40;52.30;;;;;;496586;240;1245;-41
2022/06/03 01:37:51;;;;;;;;;;;21.30;52.20;;;;;;496191;240;1181;-41
2022/06/03 01:39:52;;;;;;;;;;;21.40;52.30;;;;;;496128;240;1105;-41
2022/06/03 01:41:54;;;;;;;;;;;21.40;52.20;;;;;;496112;240;1223;-41
2022/06/03 01:43:55;;;;;;;;;;;21.40;52.20;;;;;;496592;240;2119;-41
2022/06/03 01:45:57;;;;;;;;;;;21.30;52.20;;;;;;496365;240;1238;-41
2022/06/03 01:47:58;;;;;;;;;;;21.30;52.30;;;;;;496507;240;1273;-41
2022/06/03 01:49:59;;;;;;;;;;;21.30;52.30;;;;;;496572;240;1200;-41
2022/06/03 01:52:02;;;;;;;;;;;21.30;52.20;;;;;;496375;240;1204;-41
2022/06/03 01:54:02;;;;;;;;;;;21.40;52.20;;;;;;496465;240;1935;-41
2022/06/03 01:56:03;;;;;;;;;;;21.40;52.10;;;;;;496120;240;1106;-41
2022/06/03 01:58:05;;;;;;;;;;;21.40;52.20;;;;;;496594;240;1199;-41
2022/06/03 02:00:06;;;;;;;;;;;21.40;52.20;;;;;;496622;240;1098;-41
2022/06/03 02:02:07;;;;;;;;;;;21.30;52.20;;;;;;496623;240;1166;-41
2022/06/03 02:04:09;;;;;;;;;;;21.40;52.30;;;;;;496046;240;2205;-41
2022/06/03 02:06:10;;;;;;;;;;;21.30;52.30;;;;;;496029;240;1331;-41
2022/06/03 02:08:11;;;;;;;;;;;21.30;52.20;;;;;;496539;240;1230;-41
2022/06/03 02:10:13;;;;;;;;;;;21.40;52.30;;;;;;496160;240;1241;-41
2022/06/03 02:12:15;;;;;;;;;;;21.40;52.20;;;;;;496626;240;1168;-41
2022/06/03 02:14:15;;;;;;;;;;;21.30;52.20;;;;;;496414;240;2375;-41
2022/06/03 02:16:17;;;;;;;;;;;21.30;52.30;;;;;;496357;240;1296;-41
2022/06/03 02:18:18;;;;;;;;;;;21.40;52.30;;;;;;496182;240;1089;-41
2022/06/03 02:20:19;;;;;;;;;;;21.40;52.20;;;;;;496339;240;1067;-41
2022/06/03 02:22:21;;;;;;;;;;;21.40;52.20;;;;;;496322;240;1169;-41
2022/06/03 02:24:22;;;;;;;;;;;21.30;52.20;;;;;;496081;240;2198;-41
2022/06/03 02:26:23;;;;;;;;;;;21.30;52.20;;;;;;496411;240;1280;-41
2022/06/03 02:28:25;;;;;;;;;;;21.40;52.30;;;;;;496290;240;1364;-41
2022/06/03 02:30:26;;;;;;;;;;;21.30;52.30;;;;;;496158;240;1195;-41
2022/06/03 02:32:27;;;;;;;;;;;21.40;52.20;;;;;;496581;240;1186;-41
2022/06/03 02:34:29;;;;;;;;;;;21.30;52.10;;;;;;496307;240;1178;-41
2022/06/03 02:36:30;;;;;;;;;;;21.40;52.30;;;;;;496515;240;1355;-41
2022/06/03 02:38:31;;;;;;;;;;;21.30;52.30;;;;;;496276;240;1199;-41
2022/06/03 02:40:33;;;;;;;;;;;21.30;52.30;;;;;;496122;240;1213;-41
2022/06/03 02:42:34;;;;;;;;;;;21.40;52.20;;;;;;496278;240;1283;-41
2022/06/03 02:44:35;;;;;;;;;;;21.40;52.30;;;;;;496470;240;2118;-41
2022/06/03 02:46:37;;;;;;;;;;;21.40;52.30;;;;;;496329;240;1261;-41
2022/06/03 02:48:38;;;;;;;;;;;21.40;52.20;;;;;;496536;240;1179;-41
2022/06/03 02:50:40;;;;;;;;;;;21.40;52.40;;;;;;496609;240;1236;-41
2022/06/03 02:52:41;;;;;;;;;;;21.40;52.30;;;;;;496624;240;1373;-41
2022/06/03 02:54:42;;;;;;;;;;;21.30;52.30;;;;;;496641;240;1174;-41
2022/06/03 02:56:44;;;;;;;;;;;21.30;52.40;;;;;;496529;240;1273;-41
2022/06/03 02:58:45;;;;;;;;;;;21.40;52.40;;;;;;496124;240;1250;-41
2022/06/03 03:00:47;;;;;;;;;;;21.30;52.40;;;;;;496368;240;1222;-41
2022/06/03 03:02:48;;;;;;;;;;;21.40;52.40;;;;;;496160;240;1214;-41
2022/06/03 03:04:49;;;;;;;;;;;21.40;52.20;;;;;;496321;240;2174;-41
2022/06/03 03:06:50;;;;;;;;;;;21.40;52.30;;;;;;496391;240;1104;-41
2022/06/03 03:08:52;;;;;;;;;;;21.30;52.20;;;;;;496370;240;1198;-41
2022/06/03 03:10:53;;;;;;;;;;;21.40;52.30;;;;;;496558;240;1205;-41
2022/06/03 03:12:54;;;;;;;;;;;21.40;52.30;;;;;;496441;240;1174;-41
2022/06/03 03:14:56;;;;;;;;;;;21.40;52.30;;;;;;496443;240;1296;-41
2022/06/03 03:16:57;;;;;;;;;;;21.40;52.20;;;;;;496375;240;1128;-41
2022/06/03 03:18:58;;;;;;;;;;;21.40;52.20;;;;;;496292;240;1295;-41
2022/06/03 03:21:00;;;;;;;;;;;21.40;52.20;;;;;;496119;240;1155;-41
2022/06/03 03:23:01;;;;;;;;;;;21.40;52.20;;;;;;496160;240;1131;-41
2022/06/03 03:25:02;;;;;;;;;;;21.40;52.20;;;;;;496101;240;2126;-41
2022/06/03 03:27:04;;;;;;;;;;;21.40;52.10;;;;;;496063;240;1386;-41
2022/06/03 03:29:05;;;;;;;;;;;21.40;52.20;;;;;;496130;240;1251;-41
2022/06/03 03:31:06;;;;;;;;;;;21.40;52.10;;;;;;496581;240;1207;-41
2022/06/03 03:33:08;;;;;;;;;;;21.40;52.20;;;;;;496084;240;1334;-41
2022/06/03 03:35:09;;;;;;;;;;;21.40;52.20;;;;;;496308;240;1354;-41
2022/06/03 03:37:11;;;;;;;;;;;21.50;52.10;;;;;;496449;240;1188;-41
2022/06/03 03:39:12;;;;;;;;;;;21.40;52.00;;;;;;496606;240;1075;-41
2022/06/03 03:41:13;;;;;;;;;;;21.40;52.10;;;;;;496563;240;1306;-41
2022/06/03 03:43:14;;;;;;;;;;;21.50;52.10;;;;;;496578;240;1128;-41
2022/06/03 03:45:16;;;;;;;;;;;21.50;52.10;;;;;;496532;240;2197;-41
2022/06/03 03:47:17;;;;;;;;;;;21.40;52.10;;;;;;496311;240;1381;-41
2022/06/03 03:49:18;;;;;;;;;;;21.50;52.00;;;;;;496233;240;1192;-41
2022/06/03 03:51:20;;;;;;;;;;;21.50;52.10;;;;;;496342;240;1071;-41
2022/06/03 03:53:21;;;;;;;;;;;21.40;52.10;;;;;;496583;240;1253;-41
2022/06/03 03:55:22;;;;;;;;;;;21.40;52.20;;;;;;496388;240;1225;-41
2022/06/03 03:57:24;;;;;;;;;;;21.40;52.10;;;;;;496581;240;1530;-41
2022/06/03 03:59:25;;;;;;;;;;;21.40;52.20;;;;;;496537;240;1198;-41
2022/06/03 04:01:26;;;;;;;;;;;21.50;52.10;;;;;;496537;240;1127;-41
2022/06/03 04:03:28;;;;;;;;;;;21.40;52.10;;;;;;496231;240;1322;-41
2022/06/03 04:05:31;;;;;;;;;;;21.50;52.10;;;;;;496149;240;2182;-41
2022/06/03 04:07:30;;;;;;;;;;;21.50;52.10;;;;;;496301;240;1984;-41
2022/06/03 04:09:32;;;;;;;;;;;21.40;52.10;;;;;;496101;240;1158;-41
2022/06/03 04:11:33;;;;;;;;;;;21.40;52.20;;;;;;496085;240;1504;-41
2022/06/03 04:13:34;;;;;;;;;;;21.40;52.10;;;;;;496207;240;1276;-41
2022/06/03 04:15:36;;;;;;;;;;;21.40;52.20;;;;;;496027;240;1272;-41
2022/06/03 04:17:37;;;;;;;;;;;21.40;52.20;;;;;;496378;240;1087;-41
2022/06/03 04:19:39;;;;;;;;;;;21.50;52.20;;;;;;496016;240;1172;-41
2022/06/03 04:21:40;;;;;;;;;;;21.40;52.10;;;;;;496476;240;1324;-41
2022/06/03 04:23:41;;;;;;;;;;;21.50;52.10;;;;;;496568;240;1177;-41
2022/06/03 04:25:43;;;;;;;;;;;21.40;52.20;;;;;;496236;240;2171;-41
2022/06/03 04:27:44;;;;;;;;;;;21.40;52.20;;;;;;496389;240;2259;-41
2022/06/03 04:29:45;;;;;;;;;;;21.40;52.20;;;;;;496585;240;1075;-41
2022/06/03 04:31:46;;;;;;;;;;;21.50;52.20;;;;;;496182;240;1381;-41
2022/06/03 04:33:48;;;;;;;;;;;21.40;52.20;;;;;;496437;240;1075;-41
2022/06/03 04:35:49;;;;;;;;;;;21.50;52.10;;;;;;496142;240;1224;-41
2022/06/03 04:37:50;;;;;;;;;;;21.50;52.10;;;;;;496196;240;1113;-41
2022/06/03 04:39:52;;;;;;;;;;;21.50;52.00;;;;;;496496;240;1137;-41
2022/06/03 04:41:53;;;;;;;;;;;21.50;52.00;;;;;;496247;240;1131;-41
2022/06/03 04:43:54;;;;;;;;;;;21.50;52.10;;;;;;496193;240;1146;-41
2022/06/03 04:45:56;;;;;;;;;;;21.50;52.00;;;;;;496090;240;2181;-41
2022/06/03 04:47:57;;;;;;;;;;;21.50;52.00;;;;;;496175;240;1222;-41
2022/06/03 04:49:58;;;;;;;;;;;21.50;52.00;;;;;;496011;240;1234;-41
2022/06/03 04:52:00;;;;;;;;;;;21.50;52.10;;;;;;495945;240;1550;-41
2022/06/03 04:54:01;;;;;;;;;;;21.50;52.10;;;;;;496393;240;1138;-41
2022/06/03 04:56:03;;;;;;;;;;;21.40;52.10;;;;;;496024;240;1323;-41
2022/06/03 04:58:04;;;;;;;;;;;21.50;52.10;;;;;;495945;240;1076;-41
2022/06/03 05:00:05;;;;;;;;;;;21.50;52.00;;;;;;496328;240;1186;-41
2022/06/03 05:02:07;;;;;;;;;;;21.50;52.10;;;;;;496035;240;1203;-41
2022/06/03 05:04:08;;;;;;;;;;;21.50;52.00;;;;;;495889;240;1063;-41
2022/06/03 05:06:09;;;;;;;;;;;21.50;52.10;;;;;;495960;240;2119;-41
2022/06/03 05:08:11;;;;;;;;;;;21.40;52.10;;;;;;495900;240;986;-41
2022/06/03 05:10:12;;;;;;;;;;;21.40;52.10;;;;;;496440;240;1099;-41
2022/06/03 05:12:13;;;;;;;;;;;21.50;52.20;;;;;;496247;240;1145;-41
2022/06/03 05:14:15;;;;;;;;;;;21.40;52.20;;;;;;496015;240;1056;-41
2022/06/03 05:16:17;;;;;;;;;;;21.50;52.20;;;;;;496328;240;1049;-41
2022/06/03 05:18:17;;;;;;;;;;;21.50;52.10;;;;;;495818;240;2180;-41
2022/06/03 05:20:19;;;;;;;;;;;21.50;52.10;;;;;;496007;240;1155;-41
2022/06/03 05:22:20;;;;;;;;;;;21.50;52.10;;;;;;495839;240;1206;-41
2022/06/03 05:24:21;;;;;;;;;;;21.50;52.20;;;;;;495843;240;1265;-41
2022/06/03 05:26:23;;;;;;;;;;;21.50;52.10;;;;;;495904;240;2186;-41
2022/06/03 05:28:24;;;;;;;;;;;21.50;52.20;;;;;;495853;240;1222;-41
2022/06/03 05:30:25;;;;;;;;;;;21.50;52.20;;;;;;495891;240;1205;-41
2022/06/03 05:32:27;;;;;;;;;;;21.40;52.10;;;;;;496107;240;1166;-41
2022/06/03 05:34:28;;;;;;;;;;;21.40;52.20;;;;;;495786;240;1233;-41
2022/06/03 05:36:29;;;;;;;;;;;21.40;52.20;;;;;;495553;240;1341;-41
2022/06/03 05:38:30;;;;;;;;;;;21.50;52.20;;;;;;496005;240;1087;-41
2022/06/03 05:40:32;;;;;;;;;;;21.40;52.20;;;;;;495733;240;1397;-41
2022/06/03 05:42:33;;;;;;;;;;;21.40;52.20;;;;;;495625;240;1475;-41
2022/06/03 05:44:34;;;;;;;;;;;21.40;52.20;;;;;;495782;240;1164;-41
2022/06/03 05:46:36;;;;;;;;;;;21.40;52.20;;;;;;495704;240;2170;-41
2022/06/03 05:48:37;;;;;;;;;;;21.50;52.20;;;;;;496258;240;1185;-41
2022/06/03 05:50:39;;;;;;;;;;;21.40;52.20;;;;;;495911;240;1197;-41
2022/06/03 05:52:40;;;;;;;;;;;21.50;52.20;;;;;;496098;240;1299;-41
2022/06/03 05:54:41;;;;;;;;;;;21.40;52.30;;;;;;495801;240;1184;-41
2022/06/03 05:56:43;;;;;;;;;;;21.40;52.20;;;;;;495567;240;1293;-41
2022/06/03 05:58:44;;;;;;;;;;;21.50;52.20;;;;;;495979;240;1187;-41
2022/06/03 06:00:45;;;;;;;;;;;21.40;52.20;;;;;;495817;240;1170;-41
2022/06/03 06:02:47;;;;;;;;;;;21.40;52.30;;;;;;495810;240;1105;-41
2022/06/03 06:04:48;;;;;;;;;;;21.40;52.30;;;;;;496315;240;1414;-41
2022/06/03 06:06:49;;;;;;;;;;;21.40;52.30;;;;;;495743;240;2198;-41
2022/06/03 06:08:51;;;;;;;;;;;21.40;52.20;;;;;;495993;240;1046;-41
2022/06/03 06:10:52;;;;;;;;;;;21.50;52.20;;;;;;495704;240;2360;-41
2022/06/03 06:12:54;;;;;;;;;;;21.40;52.20;;;;;;495693;240;1186;-41
2022/06/03 06:14:55;;;;;;;;;;;21.40;52.30;;;;;;495671;240;1171;-41
2022/06/03 06:16:56;;;;;;;;;;;21.50;52.20;;;;;;495951;240;1086;-41
2022/06/03 06:18:58;;;;;;;;;;;21.40;52.30;;;;;;495687;240;1256;-41
2022/06/03 06:20:59;;;;;;;;;;;21.40;52.50;;;;;;495512;240;1473;-41
2022/06/03 06:23:02;;;;;;;;;;;21.40;52.40;;;;;;495894;240;1043;-41
2022/06/03 06:25:02;;;;;;;;;;;21.40;52.40;;;;;;495382;240;1852;-41
2022/06/03 06:27:03;;;;;;;;;;;21.40;52.50;;;;;;495596;240;2157;-41
2022/06/03 06:29:05;;;;;;;;;;;21.40;52.50;;;;;;495544;240;1140;-41
2022/06/03 06:31:06;;;;;;;;;;;21.40;52.50;;;;;;495715;240;1154;-41
2022/06/03 06:33:07;;;;;;;;;;;21.40;52.60;;;;;;495581;240;1113;-41
2022/06/03 06:35:09;;;;;;;;;;;21.40;52.50;;;;;;495964;240;1023;-41
2022/06/03 06:37:12;;;;;;;;;;;21.40;52.60;;;;;;495648;240;1206;-41
2022/06/03 06:39:12;;;;;;;;;;;21.40;52.60;;;;;;495525;240;2083;-41
2022/06/03 06:41:13;;;;;;;;;;;21.30;52.60;;;;;;495443;240;1230;-41
2022/06/03 06:43:14;;;;;;;;;;;21.40;52.70;;;;;;495595;240;1301;-41
2022/06/03 06:45:16;;;;;;;;;;;21.40;52.70;;;;;;495593;240;1307;-41
2022/06/03 06:47:17;;;;;;;;;;;21.40;52.70;;;;;;495533;240;2099;-41
2022/06/03 06:49:19;;;;;;;;;;;21.40;52.70;;;;;;495607;240;1245;-41
2022/06/03 06:51:20;;;;;;;;;;;21.40;52.70;;;;;;495364;240;1313;-41
2022/06/03 06:53:21;;;;;;;;;;;21.40;52.60;;;;;;495283;240;1172;-41
2022/06/03 06:55:23;;;;;;;;;;;21.40;52.70;;;;;;495201;240;1610;-41
2022/06/03 06:57:24;;;;;;;;;;;21.40;52.70;;;;;;495076;240;1323;-41
2022/06/03 06:59:26;;;;;;;;;;;21.40;52.70;;;;;;495168;240;1251;-41
2022/06/03 07:01:27;;;;;;;;;;;21.40;52.60;;;;;;494944;240;1128;-41
2022/06/03 07:03:28;;;;;;;;;;;21.40;52.70;;;;;;495057;240;1190;-41
2022/06/03 07:05:30;;;;;;;;;;;21.40;52.80;;;;;;495255;240;1218;-41
2022/06/03 07:07:31;;;;;;;;;;;21.30;52.80;;;;;;495035;240;2182;-41
2022/06/03 07:09:32;;;;;;;;;;;21.40;52.90;;;;;;495419;240;1084;-41
2022/06/03 07:11:36;;;;;;;;;;;21.40;52.80;;;;;;495379;240;1318;-41
2022/06/03 07:13:36;;;;;;;;;;;21.40;52.90;;;;;;495302;240;1936;-41
2022/06/03 07:15:37;;;;;;;;;;;21.30;52.90;;;;;;495459;240;1311;-41
2022/06/03 07:19:58;;;;;;;;;;;21.40;52.90;;;;;;495163;240;1054;-41
2022/06/03 07:21:59;;;;;;;;;;;21.40;52.80;;;;;;495124;240;1340;-41
2022/06/03 07:24:00;;;;;;;;;;;21.40;53.00;;;;;;495271;240;1198;-41
2022/06/03 07:26:02;;;;;;;;;;;21.30;53.00;;;;;;495463;240;2185;-41
2022/06/03 07:28:03;;;;;;;;;;;21.40;53.10;;;;;;495337;240;1071;-41
2022/06/03 07:30:04;;;;;;;;;;;21.30;53.00;;;;;;495160;240;1226;-41
2022/06/03 07:32:06;;;;;;;;;;;21.30;53.20;;;;;;495128;240;1276;-41
2022/06/03 07:34:07;;;;;;;;;;;21.40;53.20;;;;;;495203;240;1270;-41
2022/06/03 07:36:08;;;;;;;;;;;21.40;53.10;;;;;;495088;240;1270;-41
2022/06/03 07:38:10;;;;;;;;;;;21.40;53.10;;;;;;495335;240;1215;-41
2022/06/03 07:40:11;;;;;;;;;;;21.40;53.10;;;;;;494952;240;2074;-41
2022/06/03 07:42:13;;;;;;;;;;;21.30;53.20;;;;;;495126;240;1247;-40
2022/06/03 07:44:13;;;;;;;;;;;21.40;53.20;;;;;;495434;240;2159;-40
2022/06/03 07:46:15;;;;;;;;;;;21.40;53.20;;;;;;495998;240;2189;-40
2022/06/03 07:48:17;;;;;;;;;;;21.40;53.20;;;;;;495365;240;1383;-40
2022/06/03 07:50:18;;;;;;;;;;;21.40;53.30;;;;;;495146;240;1084;-41
2022/06/03 07:52:19;;;;;;;;;;;21.40;53.20;;;;;;495341;240;1227;-40
2022/06/03 07:54:21;;;;;;;;;;;21.40;53.30;;;;;;495372;240;1032;-40
2022/06/03 07:56:22;;;;;;;;;;;21.40;53.20;;;;;;495370;240;1204;-40
2022/06/03 07:58:23;;;;;;;;;;;21.40;53.30;;;;;;495428;240;1257;-40
2022/06/03 08:00:25;;;;;;;;;;;21.30;53.40;;;;;;495261;240;1165;-40
2022/06/03 08:02:26;;;;;;;;;;;21.40;53.50;;;;;;495184;240;1321;-40
2022/06/03 08:04:27;;;;;;;;;;;21.40;53.40;;;;;;495234;240;1110;-40
2022/06/03 08:06:30;;;;;;;;;;;21.40;53.40;;;;;;495506;240;2184;-40
2022/06/03 08:10:58;;;;;;;;;;;21.40;53.50;;;;;;495065;240;1298;-40
2022/06/03 08:13:00;;;;;;;;;;;21.40;53.50;;;;;;495163;240;1209;-40
2022/06/03 08:15:01;;;;;;;;;;;21.40;53.50;;;;;;495132;240;1240;-40
2022/06/03 08:17:02;;;;;;;;;;;21.40;53.60;;;;;;495105;240;1341;-40
2022/06/03 08:19:04;;;;;;;;;;;21.40;53.50;;;;;;495225;240;1197;-40
2022/06/03 08:21:05;;;;;;;;;;;21.40;53.40;;;;;;495430;240;1263;-40
2022/06/03 08:23:06;;;;;;;;;;;21.40;53.50;;;;;;495509;240;1455;-40
2022/06/03 08:25:08;;;;;;;;;;;21.40;53.50;;;;;;494991;240;1257;-40
2022/06/03 08:27:09;;;;;;;;;;;21.40;53.50;;;;;;495014;240;2136;-40
2022/06/03 08:29:10;;;;;;;;;;;21.40;53.60;;;;;;495268;240;1200;-40
2022/06/03 08:31:12;;;;;;;;;;;21.40;53.60;;;;;;495132;240;1250;-40
2022/06/03 08:33:13;;;;;;;;;;;21.40;53.60;;;;;;495239;240;1249;-40
2022/06/03 08:35:14;;;;;;;;;;;21.40;53.60;;;;;;495220;240;1221;-40
2022/06/03 08:37:16;;;;;;;;;;;21.40;53.70;;;;;;495066;240;1168;-40
2022/06/03 08:39:17;;;;;;;;;;;21.40;53.60;;;;;;495287;240;1122;-40
2022/06/03 08:41:18;;;;;;;;;;;21.40;53.70;;;;;;495240;240;1416;-40
2022/06/03 08:43:20;;;;;;;;;;;21.30;53.60;;;;;;495267;240;1164;-40
2022/06/03 08:45:21;;;;;;;;;;;21.40;53.70;;;;;;495517;240;1295;-40
2022/06/03 08:47:22;;;;;;;;;;;21.40;53.70;;;;;;495398;240;2112;-40
2022/06/03 08:49:26;;;;;;;;;;;21.40;53.70;;;;;;495424;240;1090;-40
2022/06/03 08:51:25;;;;;;;;;;;21.40;53.80;;;;;;495241;240;2196;-40
2022/06/03 08:53:27;;;;;;;;;;;21.40;53.60;;;;;;495241;240;1174;-40
2022/06/03 08:55:28;;;;;;;;;;;21.40;53.70;;;;;;495356;240;1303;-40
2022/06/03 08:57:29;;;;;;;;;;;21.50;53.70;;;;;;495405;240;1266;-40
2022/06/03 08:59:31;;;;;;;;;;;21.40;53.80;;;;;;495156;240;1199;-40
2022/06/03 09:01:32;;;;;;;;;;;21.30;53.80;;;;;;495272;240;1239;-40
2022/06/03 09:03:34;;;;;;;;;;;21.40;53.70;;;;;;495554;240;1399;-40
2022/06/03 09:05:35;;;;;;;;;;;21.40;53.80;;;;;;495125;240;1342;-40
2022/06/03 09:07:36;;;;;;;;;;;21.40;53.80;;;;;;495397;240;2190;-40
2022/06/03 09:09:37;;;;;;;;;;;21.40;53.90;;;;;;495095;240;1318;-40
2022/06/03 09:11:39;;;;;;;;;;;21.40;53.80;;;;;;495040;240;1280;-40
2022/06/03 09:13:40;;;;;;;;;;;21.40;53.90;;;;;;495583;240;1076;-40
2022/06/03 09:15:43;;;;;;;;;;;21.30;53.90;;;;;;495428;240;1207;-40
2022/06/03 09:17:44;;;;;;;;;;;21.30;53.90;;;;;;496015;240;1092;-40
2022/06/03 09:19:45;;;;;;;;;;;21.40;54.10;;;;;;495263;240;1169;-40
2022/06/03 09:21:50;;;;;;;;;;;21.40;54.00;;;;;;495390;240;1210;-40
2022/06/03 09:23:48;;;;;;;;;;;21.40;54.00;;;;;;495035;240;2113;-40
2022/06/03 09:25:49;;;;;;;;;;;21.40;54.00;;;;;;495344;240;1112;-40
2022/06/03 09:27:51;;;;;;;;;;;21.40;53.90;;;;;;496114;240;2193;-40
2022/06/03 09:29:53;;;;;;;;;;;21.40;54.00;;;;;;495312;240;2066;-40
2022/06/03 09:31:53;;;;;;;;;;;21.40;54.00;;;;;;495217;240;2176;-40
2022/06/03 09:33:54;;;;;;;;;;;21.40;53.90;;;;;;495243;240;1046;-40
2022/06/03 09:35:56;;;;;;;;;;;21.40;54.00;;;;;;495079;240;1176;-40
2022/06/03 09:37:58;;;;;;;;;;;21.50;54.00;;;;;;495897;240;1374;-40
2022/06/03 09:39:59;;;;;;;;;;;21.40;54.00;;;;;;495040;240;1254;-40
2022/06/03 09:42:00;;;;;;;;;;;21.50;54.10;;;;;;495073;240;1242;-40
2022/06/03 09:44:03;;;;;;;;;;;21.40;54.00;;;;;;495213;240;1315;-40
2022/06/03 09:46:05;;;;;;;;;;;21.50;54.00;;;;;;495083;240;1325;-40
2022/06/03 09:48:06;;;;;;;;;;;21.40;54.10;;;;;;495023;240;2603;-40
2022/06/03 09:50:07;;;;;;;;;;;21.40;54.20;;;;;;495198;240;1133;-40
2022/06/03 09:52:08;;;;;;;;;;;21.40;54.20;;;;;;495544;240;1258;-40
2022/06/03 09:54:10;;;;;;;;;;;21.40;54.20;;;;;;495982;240;1102;-40
2022/06/03 09:56:11;;;;;;;;;;;21.40;54.20;;;;;;495263;240;2234;-40
2022/06/03 09:58:13;;;;;;;;;;;21.40;54.20;;;;;;495182;240;1228;-40
2022/06/03 10:00:14;;;;;;;;;;;21.40;54.20;;;;;;495472;240;1242;-40
2022/06/03 10:02:15;;;;;;;;;;;21.40;54.20;;;;;;495312;240;1151;-40
2022/06/03 10:04:17;;;;;;;;;;;21.40;54.20;;;;;;495368;240;1158;-40
2022/06/03 10:13:34;;;;;;;;;;;21.50;54.10;;;;;;477070;240;1394;-40
2022/06/03 10:15:40;;;;;;;;;;;21.50;54.20;;;;;;495298;240;1812;-40
2022/06/03 10:17:41;;;;;;;;;;;21.50;54.20;;;;;;495465;240;1290;-40
2022/06/03 10:19:43;;;;;;;;;;;21.50;54.30;;;;;;495401;240;1205;-40
2022/06/03 10:21:44;;;;;;;;;;;21.50;54.30;;;;;;495435;240;1196;-40
2022/06/03 10:23:45;;;;;;;;;;;21.50;54.30;;;;;;495422;240;1089;-40
2022/06/03 10:25:47;;;;;;;;;;;21.40;54.40;;;;;;495129;240;1295;-40
2022/06/03 10:27:48;;;;;;;;;;;21.50;54.40;;;;;;495619;240;2186;-40
2022/06/03 10:29:49;;;;;;;;;;;21.40;54.40;;;;;;495281;240;1072;-40
2022/06/03 10:31:51;;;;;;;;;;;21.50;54.30;;;;;;495491;240;1123;-40
2022/06/03 10:33:52;;;;;;;;;;;21.50;54.30;;;;;;495789;240;1067;-40
2022/06/03 10:35:55;;;;;;;;;;;21.50;54.30;;;;;;495488;240;1126;-40
2022/06/03 10:37:56;;;;;;;;;;;21.50;54.40;;;;;;495410;240;1302;-40
2022/06/03 10:39:57;;;;;;;;;;;21.50;54.40;;;;;;495530;240;1488;-40
2022/06/03 10:41:59;;;;;;;;;;;21.50;54.40;;;;;;495535;240;1193;-40
2022/06/03 10:44:00;;;;;;;;;;;21.40;54.50;;;;;;495454;240;1132;-41
2022/06/03 10:46:01;;;;;;;;;;;21.50;54.50;;;;;;495487;240;1187;-40
2022/06/03 10:48:03;;;;;;;;;;;21.50;54.50;;;;;;495382;240;2185;-40
2022/06/03 10:50:04;;;;;;;;;;;21.40;54.50;;;;;;495443;240;1137;-40
2022/06/03 11:01:22;;;;;;;;;;;21.50;54.50;;;;;;495266;240;1303;-41
2022/06/03 11:03:24;;;;;;;;;;;21.50;54.60;;;;;;495273;240;1341;-41
2022/06/03 11:05:25;;;;;;;;;;;21.50;54.70;;;;;;495498;240;1256;-41
2022/06/03 11:07:27;;;;;;;;;;;21.50;54.70;;;;;;495409;240;2249;-41
2022/06/03 11:09:28;;;;;;;;;;;21.50;54.60;;;;;;495377;240;1099;-41
2022/06/03 11:11:29;;;;;;;;;;;21.50;54.70;;;;;;495438;240;1310;-41
2022/06/03 11:13:31;;;;;;;;;;;21.50;54.60;;;;;;495324;240;1129;-41
2022/06/03 11:15:32;;;;;;;;;;;21.50;54.60;;;;;;495156;240;1251;-41
2022/06/03 11:17:34;;;;;;;;;;;21.50;54.60;;;;;;495233;240;1242;-41
2022/06/03 11:19:35;;;;;;;;;;;21.60;54.60;;;;;;495177;240;1230;-41
2022/06/03 11:21:36;;;;;;;;;;;21.50;54.60;;;;;;495274;240;1275;-41
2022/06/03 11:23:37;;;;;;;;;;;21.50;54.80;;;;;;496211;240;991;-41
2022/06/03 11:25:39;;;;;;;;;;;21.50;54.80;;;;;;495909;240;1071;-41
2022/06/03 11:27:40;;;;;;;;;;;21.50;54.80;;;;;;495678;240;2190;-41
2022/06/03 11:29:42;;;;;;;;;;;21.50;54.80;;;;;;495523;240;1185;-41
2022/06/03 11:31:43;;;;;;;;;;;21.50;54.80;;;;;;495648;240;1206;-41
2022/06/03 11:33:44;;;;;;;;;;;21.50;54.80;;;;;;495397;240;1188;-41
2022/06/03 11:35:46;;;;;;;;;;;21.50;54.70;;;;;;495306;240;1258;-41
2022/06/03 11:37:47;;;;;;;;;;;21.50;54.80;;;;;;495236;240;1250;-41
2022/06/03 11:39:48;;;;;;;;;;;21.60;54.80;;;;;;495303;240;1131;-41
2022/06/03 11:41:50;;;;;;;;;;;21.50;54.80;;;;;;495347;240;1210;-41
2022/06/03 11:43:51;;;;;;;;;;;21.50;54.80;;;;;;495285;240;1312;-41
2022/06/03 11:45:52;;;;;;;;;;;21.50;54.80;;;;;;495319;240;1161;-41
2022/06/03 11:47:54;;;;;;;;;;;21.50;55.00;;;;;;495368;240;2242;-41
2022/06/03 11:49:55;;;;;;;;;;;21.50;55.00;;;;;;495351;240;1321;-41
2022/06/03 11:51:56;;;;;;;;;;;21.60;54.90;;;;;;495516;240;1351;-41
2022/06/03 11:53:58;;;;;;;;;;;21.60;54.80;;;;;;496193;240;1204;-41
2022/06/03 11:56:01;;;;;;;;;;;21.60;54.90;;;;;;495396;240;1272;-41
2022/06/03 11:58:01;;;;;;;;;;;21.60;54.90;;;;;;495820;240;2099;-41
2022/06/03 12:00:03;;;;;;;;;;;21.60;54.80;;;;;;495401;240;1364;-41
2022/06/03 12:02:04;;;;;;;;;;;21.60;54.90;;;;;;495446;240;1255;-41
2022/06/03 12:04:06;;;;;;;;;;;21.60;54.90;;;;;;495520;240;1136;-41
2022/06/03 12:06:07;;;;;;;;;;;21.60;55.00;;;;;;495368;240;1602;-41
2022/06/03 12:08:08;;;;;;;;;;;21.60;54.90;;;;;;495445;240;2123;-41
2022/06/03 12:10:11;;;;;;;;;;;21.60;54.90;;;;;;495510;240;1075;-41
2022/06/03 12:14:31;;;;;;;;;;;21.60;55.00;;;;;;495499;240;1098;-41
2022/06/03 12:16:33;;;;;;;;;;;21.60;54.90;;;;;;495296;240;1523;-41
2022/06/03 12:18:35;;;;;;;;;;;21.60;55.00;;;;;;495388;240;1217;-41
2022/06/03 12:20:36;;;;;;;;;;;21.50;55.10;;;;;;495433;240;1300;-41